ADDS METAR Data INFO
IDs: Format: Raw Decoded Include TAF

Data at: 0247 UTC 17 Jan 2018

KAVL 170154Z 35014KT 9SM UP OVC020 M01/M04 A3027 RMK AO2 UPB51SNB43E51 SLP265 P0000 T10061039
KAVL 170102Z 34010KT 10SM BKN025 OVC060 03/M03 A3025 RMK AO2 T00281028
KAVL 170054Z 35009KT 10SM SCT027 BKN055 OVC070 03/M03 A3026 RMK AO2 SLP259 T00331028
KAVL 162354Z 20008KT 10SM OVC075 04/M02 A3024 RMK AO2 SLP254 T00441022 10083 20044 52001
KAVL 162254Z 21011KT 10SM BKN075 OVC095 06/M03 A3024 RMK AO2 SLP252 T00561033
KAVL 162154Z 20011KT 10SM OVC075 06/M03 A3024 RMK AO2 SLP251 T00611033
KAVL 162054Z 20010KT 10SM OVC090 07/M03 A3024 RMK AO2 SLP251 T00671033 56010
KAVL 161954Z 19009KT 10SM FEW100 08/M04 A3024 RMK AO2 SLP249 T00781039
KAVL 161854Z 17009KT 10SM CLR 08/M03 A3025 RMK AO2 SLP252 T00831033
KAVL 161754Z VRB06KT 10SM CLR 06/M04 A3027 RMK AO2 SLP260 T00611044 10067 21067 58032
KAVL 161654Z 18005KT 10SM CLR 05/M04 A3033 RMK AO2 SLP279 T00501039
KAVL 161554Z 00000KT 10SM CLR 03/M05 A3037 RMK AO2 SLP294 T00281050
KAVL 161454Z 33004KT 10SM CLR M01/M05 A3037 RMK AO2 SLP300 T10061050 53011
KAVL 161354Z 33004KT 10SM CLR M04/M06 A3036 RMK AO2 SLP298 T10391061
KAVL 161254Z 00000KT 10SM CLR M06/M08 A3034 RMK AO2 SLP292 T10561078
KAVL 161154Z 00000KT 10SM CLR M06/M08 A3034 RMK AO2 SLP291 T10611078 11033 21061 55002
KAVL 161054Z AUTO 34003KT 10SM CLR M06/M08 A3033 RMK AO2 SLP288 T10561078
KAVL 160954Z AUTO 00000KT 10SM CLR M06/M08 A3033 RMK AO2 SLP284 T10561078
KAVL 160854Z AUTO 00000KT 10SM CLR M06/M07 A3034 RMK AO2 SLP288 T10561072 58008
KAVL 160754Z AUTO 00000KT 10SM CLR M05/M08 A3036 RMK AO2 SLP295 T10501078
KAVL 160654Z AUTO 00000KT 10SM CLR M04/M07 A3036 RMK AO2 SLP295 T10441072
KAVL 160554Z AUTO 00000KT 10SM CLR M03/M08 A3037 RMK AO2 SLP298 T10331078 10006 21039 58001
KAVL 160454Z AUTO 00000KT 10SM CLR M03/M08 A3037 RMK AO2 SLP301 T10331078 400441078
KAVL 160354Z AUTO 19003KT 10SM CLR M02/M08 A3038 RMK AO2 SLP303 T10221078
KAVL 160254Z 00000KT 10SM CLR M02/M08 A3037 RMK AO2 SLP303 T10171078 53008
KAVL 160154Z 16003KT 10SM CLR M01/M08 A3036 RMK AO2 SLP300 T10111078
KAVL 160054Z 14003KT 10SM CLR M01/M08 A3035 RMK AO2 SLP296 T10061078
KAVL 152354Z 15004KT 10SM CLR 01/M08 A3035 RMK AO2 SLP294 T00061083 10044 20006 53009
KAVL 152254Z 14004KT 10SM CLR 02/M08 A3033 RMK AO2 SLP288 T00171083
KAVL 152154Z 13008KT 10SM CLR 03/M08 A3032 RMK AO2 SLP285 T00331083
KAVL 152054Z VRB06KT 10SM CLR 04/M08 A3032 RMK AO2 SLP281 T00391078 55015
KAVL 151954Z 16005KT 10SM CLR 04/M08 A3031 RMK AO2 SLP279 T00391078
KAVL 151854Z 12003KT 10SM CLR 03/M08 A3033 RMK AO2 SLP286 T00281078
KAVL 151754Z VRB04KT 10SM CLR 01/M09 A3036 RMK AO2 SLP299 T00061089 10006 21078 58024
KAVL 151654Z 16006KT 10SM CLR M01/M09 A3040 RMK AO2 SLP312 T10111094
KAVL 151554Z 16008KT 10SM CLR M03/M09 A3042 RMK AO2 SLP321 T10281094
KAVL 151454Z 12003KT 10SM CLR M05/M11 A3044 RMK AO2 SLP329 T10501106 53008